Kissho — JD3124 — position and weather

sailwx.info

Track history (hours):
 
Tides and Currents Weather Stations Pressure Air Temp Water Temp Dewpoint Dewpoint Depression Visibility Wind Speed Wind Dir Waves Ship Positions

Kissho

Last reported at 2017-Apr-28 08:45 UTC. Time now 2017-Apr-29 01:40 UTC.
Position N 34°39' E 135°26'.

Length 30 m.

Type: Tug. MMSI: 431002115.

Date/timePositionNaut miles runAvg speedWind from/ knotsBaromVisibWave heightAir tempDewpointWater temp
2017-Apr-28 08:45N 34°39' E 135°26'1 0.2
2017-Apr-28 03:11N 34°39' E 135°26'  
2017-Apr-25 17:50N 34°39' E 135°28'0 0.0
2017-Apr-25 15:02N 34°39' E 135°28'0 0.0
2017-Apr-25 14:56N 34°39' E 135°28'0 0.0
2017-Apr-25 12:38N 34°39' E 135°28'2 0.3
2017-Apr-25 06:01N 34°39' E 135°26'3 9.9
2017-Apr-25 05:40N 34°40' E 135°22'1 7.6
2017-Apr-25 05:30N 34°41' E 135°21'0 0.0
2017-Apr-25 04:58N 34°41' E 135°21'0 0.1
2017-Apr-25 04:27N 34°41' E 135°21'4 8.7
2017-Apr-25 03:59N 34°39' E 135°25'2 0.3
2017-Apr-24 21:19N 34°39' E 135°28'0 0.0
2017-Apr-24 18:31N 34°39' E 135°28'0 0.0
2017-Apr-24 14:37N 34°39' E 135°28'0 0.0
2017-Apr-24 14:25N 34°39' E 135°28'0 0.0
2017-Apr-24 13:25N 34°39' E 135°28'1 0.0
2017-Apr-23 02:13N 34°39' E 135°26'1 1.1
2017-Apr-23 01:17N 34°39' E 135°26'2 6.6
2017-Apr-23 00:55N 34°38' E 135°23'2 4.7
2017-Apr-23 00:30N 34°38' E 135°20'3 6.1
2017-Apr-23 00:00N 34°35' E 135°18'4 7.2
2017-Apr-22 23:30N 34°33' E 135°15'4 7.2
2017-Apr-22 22:58N 34°30' E 135°12'18 7.0
2017-Apr-22 20:21N 34°14' E 135°00'235 5.5
2017-Apr-21 01:32N 35°06' E 139°39'1 7.9
2017-Apr-21 01:26N 35°06' E 139°40'3 7.7
2017-Apr-21 01:00N 35°09' E 139°43'3 6.4
2017-Apr-21 00:30N 35°11' E 139°45'5 6.9
2017-Apr-20 23:51N 35°16' E 139°46'5 7.3
2017-Apr-20 23:12N 35°19' E 139°43'2 6.7
2017-Apr-20 22:55N 35°21' E 139°42'3 6.9
2017-Apr-20 22:30N 35°24' E 139°43'4 7.2
2017-Apr-20 22:00N 35°27' E 139°46'4 7.5
2017-Apr-20 21:30N 35°29' E 139°50'4 0.2
2017-Apr-20 02:51N 35°26' E 139°46'3 7.2
2017-Apr-20 02:30N 35°25' E 139°43'2 3.1
2017-Apr-20 01:58N 35°24' E 139°42'0 0.9
2017-Apr-20 01:30N 35°25' E 139°41'0 0.2
2017-Apr-20 00:57N 35°25' E 139°42'0 0.1
2017-Apr-20 00:30N 35°25' E 139°42'0 0.2
2017-Apr-20 00:00N 35°25' E 139°42'0 0.4
2017-Apr-19 23:23N 35°24' E 139°42'0 0.5
2017-Apr-19 23:00N 35°25' E 139°42'0 0.6
2017-Apr-19 22:30N 35°25' E 139°42'4 7.2
2017-Apr-19 22:00N 35°26' E 139°46'4 7.6
2017-Apr-19 21:26N 35°29' E 139°50'  
Track history (hours):
 
Tides and Currents Weather Stations Pressure Air Temp Water Temp Dewpoint Dewpoint Depression Visibility Wind Speed Wind Dir Waves Ship Positions

Kissho

Last reported at 2017-Apr-28 08:45 UTC. Time now 2017-Apr-29 01:40 UTC.
Position N 34°39' E 135°26'.

Length 30 m.

Type: Tug. MMSI: 431002115.

Date/timePositionNaut miles runAvg speedWind from/ knotsBaromVisibWave heightAir tempDewpointWater temp
2017-Apr-28 08:45N 34°39' E 135°26'1 0.2
2017-Apr-28 03:11N 34°39' E 135°26'  
2017-Apr-25 17:50N 34°39' E 135°28'0 0.0
2017-Apr-25 15:02N 34°39' E 135°28'0 0.0
2017-Apr-25 14:56N 34°39' E 135°28'0 0.0
2017-Apr-25 12:38N 34°39' E 135°28'2 0.3
2017-Apr-25 06:01N 34°39' E 135°26'3 9.9
2017-Apr-25 05:40N 34°40' E 135°22'1 7.6
2017-Apr-25 05:30N 34°41' E 135°21'0 0.0
2017-Apr-25 04:58N 34°41' E 135°21'0 0.1
2017-Apr-25 04:27N 34°41' E 135°21'4 8.7
2017-Apr-25 03:59N 34°39' E 135°25'2 0.3
2017-Apr-24 21:19N 34°39' E 135°28'0 0.0
2017-Apr-24 18:31N 34°39' E 135°28'0 0.0
2017-Apr-24 14:37N 34°39' E 135°28'0 0.0
2017-Apr-24 14:25N 34°39' E 135°28'0 0.0
2017-Apr-24 13:25N 34°39' E 135°28'1 0.0
2017-Apr-23 02:13N 34°39' E 135°26'1 1.1
2017-Apr-23 01:17N 34°39' E 135°26'2 6.6
2017-Apr-23 00:55N 34°38' E 135°23'2 4.7
2017-Apr-23 00:30N 34°38' E 135°20'3 6.1
2017-Apr-23 00:00N 34°35' E 135°18'4 7.2
2017-Apr-22 23:30N 34°33' E 135°15'4 7.2
2017-Apr-22 22:58N 34°30' E 135°12'18 7.0
2017-Apr-22 20:21N 34°14' E 135°00'235 5.5
2017-Apr-21 01:32N 35°06' E 139°39'1 7.9
2017-Apr-21 01:26N 35°06' E 139°40'3 7.7
2017-Apr-21 01:00N 35°09' E 139°43'3 6.4
2017-Apr-21 00:30N 35°11' E 139°45'5 6.9
2017-Apr-20 23:51N 35°16' E 139°46'5 7.3
2017-Apr-20 23:12N 35°19' E 139°43'2 6.7
2017-Apr-20 22:55N 35°21' E 139°42'3 6.9
2017-Apr-20 22:30N 35°24' E 139°43'4 7.2
2017-Apr-20 22:00N 35°27' E 139°46'4 7.5
2017-Apr-20 21:30N 35°29' E 139°50'4 0.2
2017-Apr-20 02:51N 35°26' E 139°46'3 7.2
2017-Apr-20 02:30N 35°25' E 139°43'2 3.1
2017-Apr-20 01:58N 35°24' E 139°42'0 0.9
2017-Apr-20 01:30N 35°25' E 139°41'0 0.2
2017-Apr-20 00:57N 35°25' E 139°42'0 0.1
2017-Apr-20 00:30N 35°25' E 139°42'0 0.2
2017-Apr-20 00:00N 35°25' E 139°42'0 0.4
2017-Apr-19 23:23N 35°24' E 139°42'0 0.5
2017-Apr-19 23:00N 35°25' E 139°42'0 0.6
2017-Apr-19 22:30N 35°25' E 139°42'4 7.2
2017-Apr-19 22:00N 35°26' E 139°46'4 7.6
2017-Apr-19 21:26N 35°29' E 139°50'  

Dump ship's entire track history